createdAt,value
2018-09-19T00:00:04.738Z,32.67
2018-09-19T00:02:33.447Z,31.93
2018-09-19T00:05:01.515Z,30.27
2018-09-19T00:07:29.590Z,38.23
2018-09-19T00:09:57.656Z,22.67
2018-09-19T00:12:25.709Z,30.33
2018-09-19T00:14:53.773Z,31.10
2018-09-19T00:17:21.831Z,31.03
2018-09-19T00:19:49.867Z,26.73
2018-09-19T00:22:17.910Z,38.17
2018-09-19T00:24:45.979Z,34.40
2018-09-19T00:27:14.051Z,36.40
2018-09-19T00:29:42.119Z,23.93
2018-09-19T00:32:10.182Z,40.53
2018-09-19T00:34:38.234Z,24.10
2018-09-19T00:37:06.331Z,27.40
2018-09-19T00:39:34.417Z,23.43
2018-09-19T00:42:02.545Z,33.53
2018-09-19T00:44:30.589Z,36.60
2018-09-19T00:46:58.637Z,28.07
2018-09-19T00:49:26.836Z,36.37
2018-09-19T00:51:54.890Z,30.77
2018-09-19T00:54:22.954Z,39.53
2018-09-19T00:56:51.035Z,40.73
2018-09-19T00:59:19.095Z,27.67
2018-09-19T01:01:47.169Z,29.53
2018-09-19T01:04:15.217Z,40.43
2018-09-19T01:06:43.313Z,26.37
2018-09-19T01:09:11.583Z,33.57
2018-09-19T01:11:39.949Z,41.27
2018-09-19T01:14:08.011Z,26.83
2018-09-19T01:16:37.031Z,33.10
2018-09-19T01:19:05.119Z,30.93
2018-09-19T01:21:33.186Z,27.40
2018-09-19T01:24:01.269Z,29.40
2018-09-19T01:26:29.368Z,27.00
2018-09-19T01:28:57.458Z,42.90
2018-09-19T01:31:25.525Z,29.83
2018-09-19T01:33:53.754Z,25.07
2018-09-19T01:36:22.000Z,34.13
2018-09-19T01:38:50.061Z,31.13
2018-09-19T01:41:18.111Z,30.30
2018-09-19T01:43:46.698Z,34.10
2018-09-19T01:46:14.793Z,32.37
2018-09-19T01:48:42.847Z,28.90
2018-09-19T01:51:10.911Z,38.60
2018-09-19T01:53:38.969Z,41.63
2018-09-19T01:56:07.042Z,30.63
2018-09-19T01:58:35.134Z,21.50
2018-09-19T02:01:03.322Z,38.20
2018-09-19T02:03:31.397Z,47.67
2018-09-19T02:05:59.495Z,39.50
2018-09-19T02:08:27.540Z,26.77
2018-09-19T02:10:55.604Z,40.47
2018-09-19T02:13:23.685Z,36.63
2018-09-19T02:15:51.748Z,28.97
2018-09-19T02:18:19.811Z,34.80
2018-09-19T02:20:47.873Z,33.77
2018-09-19T02:23:15.936Z,40.13
2018-09-19T02:25:43.992Z,23.20
2018-09-19T02:28:12.062Z,32.97
2018-09-19T02:30:40.119Z,30.80
2018-09-19T02:33:08.207Z,37.50
2018-09-19T02:35:36.272Z,33.50
2018-09-19T02:38:04.411Z,36.47
2018-09-19T02:40:32.405Z,41.43
2018-09-19T02:43:00.491Z,33.77
2018-09-19T02:45:28.528Z,34.03
2018-09-19T02:47:56.614Z,30.93
2018-09-19T02:50:24.736Z,35.33
2018-09-19T02:52:55.246Z,29.03
2018-09-19T02:55:24.224Z,38.20
2018-09-19T02:57:52.305Z,40.17
2018-09-19T03:00:20.366Z,32.17
2018-09-19T03:02:48.524Z,38.77
2018-09-19T03:05:16.499Z,36.20
2018-09-19T03:07:44.582Z,30.03
2018-09-19T03:10:12.648Z,35.57
2018-09-19T03:12:40.734Z,45.87
2018-09-19T03:15:08.921Z,43.47
2018-09-19T03:17:37.172Z,51.60
2018-09-19T03:20:05.054Z,50.50
2018-09-19T03:22:33.099Z,36.27
2018-09-19T03:25:01.184Z,30.13
2018-09-19T03:27:29.243Z,43.93
2018-09-19T03:29:57.301Z,54.10
2018-09-19T03:32:25.358Z,42.80
2018-09-19T03:34:53.416Z,53.37
2018-09-19T03:37:21.470Z,44.37
2018-09-19T03:39:49.581Z,43.37
2018-09-19T03:42:17.635Z,53.07
2018-09-19T03:44:45.738Z,40.73
2018-09-19T03:47:13.793Z,49.30
2018-09-19T03:49:41.878Z,54.23
2018-09-19T03:52:09.948Z,58.50
2018-09-19T03:54:38.005Z,56.83
2018-09-19T03:57:06.093Z,44.33
2018-09-19T03:59:34.154Z,50.57
2018-09-19T04:02:02.215Z,52.63
2018-09-19T04:04:30.293Z,32.00
2018-09-19T04:06:58.352Z,40.13
2018-09-19T04:09:26.417Z,60.17
2018-09-19T04:11:54.466Z,53.60
2018-09-19T04:14:22.555Z,62.67
2018-09-19T04:16:50.605Z,66.60
2018-09-19T04:19:18.653Z,45.00
2018-09-19T04:21:49.684Z,45.30
2018-09-19T04:24:17.964Z,65.30
2018-09-19T04:26:46.148Z,45.67
2018-09-19T04:29:14.782Z,73.90
2018-09-19T04:31:43.413Z,45.47
2018-09-19T04:34:11.733Z,42.77
2018-09-19T04:36:39.850Z,50.10
2018-09-19T04:39:09.322Z,49.27
2018-09-19T04:41:37.601Z,44.73
2018-09-19T04:44:06.694Z,48.57
2018-09-19T04:46:34.887Z,58.93
2018-09-19T04:49:02.956Z,39.53
2018-09-19T04:51:31.068Z,33.73
2018-09-19T04:53:59.122Z,53.93
2018-09-19T04:56:27.302Z,48.67
2018-09-19T04:58:55.369Z,58.33
2018-09-19T05:01:23.437Z,41.30
2018-09-19T05:03:51.517Z,41.80
2018-09-19T05:06:19.601Z,61.23
2018-09-19T05:08:47.658Z,55.73
2018-09-19T05:11:15.737Z,54.47
2018-09-19T05:13:43.835Z,57.77
2018-09-19T05:16:11.914Z,54.53
2018-09-19T05:18:39.995Z,45.77
2018-09-19T05:21:08.052Z,34.70
2018-09-19T05:23:36.112Z,38.47
2018-09-19T05:26:04.204Z,55.27
2018-09-19T05:28:32.276Z,44.33
2018-09-19T05:31:00.479Z,45.33
2018-09-19T05:33:28.632Z,50.33
2018-09-19T05:35:56.734Z,56.67
2018-09-19T05:38:24.781Z,35.03
2018-09-19T05:40:52.849Z,47.87
2018-09-19T05:43:20.985Z,43.80
2018-09-19T05:45:49.064Z,45.37
2018-09-19T05:48:17.130Z,52.93
2018-09-19T05:50:45.229Z,49.03
2018-09-19T05:53:13.305Z,42.33
2018-09-19T05:55:41.419Z,41.27
2018-09-19T05:58:09.522Z,38.17
2018-09-19T06:00:37.609Z,50.93
2018-09-19T06:03:05.864Z,44.40
2018-09-19T06:05:34.544Z,47.97
2018-09-19T06:08:02.797Z,43.20
2018-09-19T06:10:30.911Z,44.47
2018-09-19T06:12:59.091Z,41.73
2018-09-19T06:15:27.466Z,44.33
2018-09-19T06:17:55.611Z,48.77
2018-09-19T06:20:23.714Z,43.83
2018-09-19T06:22:51.821Z,37.83
2018-09-19T06:25:19.971Z,35.87
2018-09-19T06:27:48.041Z,37.87
2018-09-19T06:30:16.768Z,43.63
2018-09-19T06:32:45.307Z,42.27
2018-09-19T06:35:14.628Z,44.70
2018-09-19T06:37:42.689Z,33.33
2018-09-19T06:40:10.853Z,57.67
2018-09-19T06:42:40.549Z,34.13
2018-09-19T06:45:08.627Z,35.40
2018-09-19T06:47:36.869Z,33.60
2018-09-19T06:50:05.022Z,32.00
2018-09-19T06:52:33.375Z,38.77
2018-09-19T06:55:01.391Z,29.90
2018-09-19T06:57:29.463Z,31.67
2018-09-19T06:59:57.530Z,28.10
2018-09-19T07:02:26.255Z,44.67
2018-09-19T07:04:54.322Z,22.40
2018-09-19T07:07:22.392Z,17.30
2018-09-19T07:09:50.452Z,30.23
2018-09-19T07:12:18.562Z,27.00
2018-09-19T07:14:46.750Z,36.03
2018-09-19T07:17:14.843Z,29.13
2018-09-19T07:19:42.872Z,34.60
2018-09-19T07:22:10.925Z,30.63
2018-09-19T07:24:38.995Z,27.83
2018-09-19T07:27:07.075Z,30.70
2018-09-19T07:29:35.137Z,33.17
2018-09-19T07:32:03.638Z,37.50
2018-09-19T07:34:31.681Z,24.57
2018-09-19T07:36:59.750Z,30.20
2018-09-19T07:39:27.810Z,25.57
2018-09-19T07:41:55.966Z,39.83
2018-09-19T07:44:24.008Z,34.83
2018-09-19T07:46:52.135Z,19.63
2018-09-19T07:49:20.197Z,26.93
2018-09-19T07:51:48.581Z,26.07
2018-09-19T07:54:16.809Z,28.73
2018-09-19T07:56:44.937Z,15.63
2018-09-19T07:59:13.028Z,34.83
2018-09-19T08:01:41.149Z,24.17
2018-09-19T08:04:09.231Z,30.43
2018-09-19T08:06:37.290Z,26.17
2018-09-19T08:09:06.827Z,30.80
2018-09-19T08:11:35.259Z,17.57
2018-09-19T08:14:03.863Z,19.40
2018-09-19T08:16:32.094Z,21.87
2018-09-19T08:19:00.179Z,25.73
2018-09-19T08:21:28.229Z,24.23
2018-09-19T08:23:56.332Z,21.77
2018-09-19T08:26:24.491Z,27.07
2018-09-19T08:28:52.575Z,16.33
2018-09-19T08:31:20.648Z,24.07
2018-09-19T08:33:48.715Z,18.57
2018-09-19T08:36:16.772Z,41.60
2018-09-19T08:38:44.838Z,16.90
2018-09-19T08:41:12.902Z,18.60
2018-09-19T08:43:40.971Z,19.60
2018-09-19T08:46:09.028Z,20.43
2018-09-19T08:48:37.140Z,23.90
2018-09-19T08:51:05.355Z,16.40
2018-09-19T08:53:33.415Z,13.50
2018-09-19T08:56:01.478Z,14.27
2018-09-19T08:58:29.621Z,18.93
2018-09-19T09:00:57.794Z,17.03
2018-09-19T09:03:26.783Z,13.23
2018-09-19T09:05:55.190Z,18.83
2018-09-19T09:08:23.277Z,17.80
2018-09-19T09:10:51.313Z,17.27
2018-09-19T09:13:19.364Z,15.30
2018-09-19T09:15:47.413Z,23.27
2018-09-19T09:18:15.469Z,19.30
2018-09-19T09:20:43.540Z,32.03
2018-09-19T09:23:11.609Z,15.33
2018-09-19T09:25:39.690Z,14.37
2018-09-19T09:28:07.773Z,18.87
2018-09-19T09:30:35.928Z,14.03
2018-09-19T09:33:04.141Z,15.23
2018-09-19T09:35:32.321Z,16.60
2018-09-19T09:38:00.397Z,8.33
2018-09-19T09:40:28.484Z,25.53
2018-09-19T09:42:56.525Z,13.63
2018-09-19T09:45:24.620Z,8.10
2018-09-19T09:47:52.749Z,10.10
2018-09-19T09:50:20.827Z,14.40
2018-09-19T09:52:48.882Z,18.50
2018-09-19T09:55:17.017Z,8.57
2018-09-19T09:57:45.085Z,15.03
2018-09-19T10:00:13.172Z,12.03
2018-09-19T10:02:41.533Z,11.23
2018-09-19T10:05:09.584Z,13.63
2018-09-19T10:07:37.674Z,14.50
2018-09-19T10:10:06.037Z,13.20
2018-09-19T10:12:34.124Z,14.40
2018-09-19T10:15:02.157Z,11.47
2018-09-19T10:17:30.213Z,17.90
2018-09-19T10:19:58.282Z,16.30
2018-09-19T10:22:26.357Z,11.13
2018-09-19T10:24:54.423Z,8.27
2018-09-19T10:27:22.505Z,6.90
2018-09-19T10:29:50.568Z,11.20
2018-09-19T10:32:18.657Z,11.17
2018-09-19T10:34:46.719Z,13.40
2018-09-19T10:37:14.785Z,13.03
2018-09-19T10:39:42.854Z,15.60
2018-09-19T10:42:10.980Z,12.10
2018-09-19T10:44:39.056Z,9.70
2018-09-19T10:47:07.421Z,8.43
2018-09-19T10:49:35.480Z,24.87
2018-09-19T10:52:03.538Z,10.53
2018-09-19T10:54:31.630Z,11.87
2018-09-19T10:56:59.727Z,13.37
2018-09-19T10:59:28.876Z,14.53
2018-09-19T11:01:57.074Z,14.13
2018-09-19T11:04:25.745Z,12.17
2018-09-19T11:06:53.858Z,15.77
2018-09-19T11:09:21.918Z,17.00
2018-09-19T11:11:50.596Z,16.73
2018-09-19T11:14:18.677Z,15.53
2018-09-19T11:16:46.775Z,11.87
2018-09-19T11:19:14.826Z,9.00
2018-09-19T11:21:42.910Z,23.53
2018-09-19T11:24:10.971Z,10.60
2018-09-19T11:26:39.075Z,16.30
2018-09-19T11:29:07.131Z,13.27
2018-09-19T11:31:35.331Z,16.30
2018-09-19T11:34:03.535Z,13.03
2018-09-19T11:36:31.661Z,10.37
2018-09-19T11:39:00.473Z,7.87
2018-09-19T11:41:28.558Z,15.13
2018-09-19T11:43:56.697Z,9.57
2018-09-19T11:46:24.764Z,13.23
2018-09-19T11:48:52.862Z,16.33
2018-09-19T11:51:21.085Z,12.70
2018-09-19T11:53:49.181Z,10.97
2018-09-19T11:56:17.803Z,16.37
2018-09-19T11:58:45.886Z,10.83
2018-09-19T12:01:13.954Z,12.63
2018-09-19T12:03:42.640Z,8.90
2018-09-19T12:06:10.685Z,5.57
2018-09-19T12:08:38.764Z,13.27
2018-09-19T12:11:06.838Z,10.57
2018-09-19T12:13:35.123Z,14.57
2018-09-19T12:16:03.281Z,17.97
2018-09-19T12:18:31.977Z,9.20
2018-09-19T12:21:00.044Z,10.23
2018-09-19T12:23:28.095Z,11.50
2018-09-19T12:25:56.155Z,6.77
2018-09-19T12:28:25.077Z,16.03
2018-09-19T12:30:53.158Z,10.47
2018-09-19T12:33:21.227Z,5.67
2018-09-19T12:35:50.386Z,8.27
2018-09-19T12:38:18.461Z,10.77
2018-09-19T12:40:46.541Z,5.13
2018-09-19T12:43:14.610Z,13.67
2018-09-19T12:45:42.726Z,11.33
2018-09-19T12:48:10.785Z,8.13
2018-09-19T12:50:38.850Z,17.93
2018-09-19T12:53:06.938Z,7.47
2018-09-19T12:55:34.982Z,8.73
2018-09-19T12:58:03.615Z,13.03
2018-09-19T13:00:32.328Z,7.77
2018-09-19T13:03:00.401Z,15.00
2018-09-19T13:05:28.605Z,22.63
2018-09-19T13:07:56.681Z,8.87
2018-09-19T13:10:24.777Z,11.73
2018-09-19T13:12:52.886Z,11.57
2018-09-19T13:15:20.950Z,12.10
2018-09-19T13:17:49.016Z,9.10
2018-09-19T13:20:17.111Z,10.30
2018-09-19T13:22:45.188Z,17.10
2018-09-19T13:25:13.756Z,28.43
2018-09-19T13:27:41.814Z,10.43
2018-09-19T13:30:09.885Z,10.23
2018-09-19T13:32:37.942Z,29.20
2018-09-19T13:35:06.015Z,12.53
2018-09-19T13:37:35.189Z,12.83
2018-09-19T13:40:03.284Z,13.00
2018-09-19T13:42:32.336Z,9.00
2018-09-19T13:45:00.700Z,8.47
2018-09-19T13:47:29.763Z,15.40
2018-09-19T13:50:01.996Z,10.67
2018-09-19T13:52:30.044Z,10.73
2018-09-19T13:54:58.656Z,17.80
2018-09-19T13:57:26.708Z,11.50
2018-09-19T13:59:54.781Z,15.87
2018-09-19T14:02:22.862Z,10.43
2018-09-19T14:04:50.950Z,16.70
2018-09-19T14:07:18.997Z,17.93
2018-09-19T14:09:47.869Z,11.43
2018-09-19T14:12:16.000Z,16.37
2018-09-19T14:14:44.041Z,13.37
2018-09-19T14:17:12.152Z,14.73
2018-09-19T14:19:40.307Z,17.47
2018-09-19T14:22:08.375Z,13.70
2018-09-19T14:24:36.646Z,17.73
2018-09-19T14:27:04.697Z,12.13
2018-09-19T14:29:33.354Z,14.80
2018-09-19T14:32:01.432Z,14.67
2018-09-19T14:34:29.653Z,10.27
2018-09-19T14:36:57.701Z,14.23
2018-09-19T14:39:25.878Z,13.70
2018-09-19T14:41:53.995Z,15.40
2018-09-19T14:44:22.099Z,12.27
2018-09-19T14:46:50.170Z,12.90
2018-09-19T14:49:18.250Z,17.20
2018-09-19T14:51:46.341Z,10.67
2018-09-19T14:54:14.458Z,10.63
2018-09-19T14:56:42.523Z,9.30
2018-09-19T14:59:11.135Z,17.17
2018-09-19T15:01:39.173Z,11.00
2018-09-19T15:04:07.253Z,9.73
2018-09-19T15:06:35.325Z,10.77
2018-09-19T15:09:05.477Z,10.30
2018-09-19T15:11:33.534Z,14.37
2018-09-19T15:14:01.634Z,21.93
2018-09-19T15:16:29.780Z,22.60
2018-09-19T15:18:57.850Z,15.00
2018-09-19T15:21:25.946Z,14.20
2018-09-19T15:23:54.018Z,16.83
2018-09-19T15:26:22.069Z,15.97
2018-09-19T15:28:50.646Z,14.23
2018-09-19T15:31:18.922Z,6.70
2018-09-19T15:33:46.970Z,23.27
2018-09-19T15:36:15.112Z,17.47
2018-09-19T15:38:43.086Z,13.83
2018-09-19T15:41:11.166Z,23.67
2018-09-19T15:43:39.227Z,10.33
2018-09-19T15:46:07.278Z,15.03
2018-09-19T15:48:35.338Z,18.00
2018-09-19T15:51:03.486Z,11.67
2018-09-19T15:53:32.310Z,15.40
2018-09-19T15:56:01.445Z,17.77
2018-09-19T15:58:29.554Z,10.87
2018-09-19T16:00:57.657Z,17.90
2018-09-19T16:03:26.057Z,14.10
2018-09-19T16:05:54.804Z,15.57
2018-09-19T16:08:23.094Z,19.00
2018-09-19T16:10:51.165Z,15.13
2018-09-19T16:13:19.657Z,15.63
2018-09-19T16:15:48.386Z,14.90
2018-09-19T16:18:16.473Z,20.57
2018-09-19T16:20:44.794Z,17.47
2018-09-19T16:23:12.866Z,16.83
2018-09-19T16:25:40.926Z,19.33
2018-09-19T16:28:08.993Z,15.63
2018-09-19T16:30:37.093Z,21.57
2018-09-19T16:33:05.284Z,15.83
2018-09-19T16:35:33.353Z,12.80
2018-09-19T16:38:01.517Z,16.57
2018-09-19T16:40:29.555Z,17.60
2018-09-19T16:42:57.650Z,6.50
2018-09-19T16:45:25.766Z,16.00
2018-09-19T16:47:53.789Z,17.63
2018-09-19T16:50:21.886Z,20.03
2018-09-19T16:52:49.970Z,15.80
2018-09-19T16:55:18.054Z,14.83
2018-09-19T16:57:46.115Z,12.10
2018-09-19T17:00:15.157Z,16.43
2018-09-19T17:02:43.228Z,6.93
2018-09-19T17:05:11.286Z,10.57
2018-09-19T17:07:40.123Z,17.93
2018-09-19T17:10:08.686Z,16.67
2018-09-19T17:12:36.874Z,15.23
2018-09-19T17:15:04.928Z,15.63
2018-09-19T17:17:32.982Z,13.77
2018-09-19T17:20:01.083Z,18.67
2018-09-19T17:22:29.141Z,7.43
2018-09-19T17:24:57.197Z,20.03
2018-09-19T17:27:25.264Z,11.70
2018-09-19T17:29:53.342Z,14.93
2018-09-19T17:32:21.414Z,19.73
2018-09-19T17:34:49.482Z,19.23
2018-09-19T17:37:17.558Z,28.30
2018-09-19T17:39:45.600Z,13.10
2018-09-19T17:42:13.657Z,18.00
2018-09-19T17:44:41.718Z,21.27
2018-09-19T17:47:09.780Z,17.53
2018-09-19T17:49:38.718Z,18.67
2018-09-19T17:52:06.782Z,23.90
2018-09-19T17:54:34.836Z,24.03
2018-09-19T17:57:02.950Z,16.97
2018-09-19T17:59:30.997Z,19.60
2018-09-19T18:01:59.042Z,14.60
2018-09-19T18:04:27.115Z,25.57
2018-09-19T18:06:55.190Z,23.60
2018-09-19T18:09:23.297Z,17.40
2018-09-19T18:11:51.359Z,13.50
2018-09-19T18:14:19.425Z,12.67
2018-09-19T18:16:47.536Z,15.53
2018-09-19T18:19:15.605Z,38.27
2018-09-19T18:21:43.697Z,18.50
2018-09-19T18:24:11.774Z,17.07
2018-09-19T18:26:39.833Z,12.47
2018-09-19T18:29:07.935Z,17.87
2018-09-19T18:31:36.125Z,17.00
2018-09-19T18:34:04.174Z,17.23
2018-09-19T18:36:32.235Z,19.03
2018-09-19T18:39:00.297Z,26.87
2018-09-19T18:41:28.407Z,14.80
2018-09-19T18:43:56.496Z,22.37
2018-09-19T18:46:25.269Z,23.87
2018-09-19T18:48:53.345Z,14.77
2018-09-19T18:51:21.426Z,24.53
2018-09-19T18:53:49.517Z,21.60
2018-09-19T18:56:17.597Z,20.43
2018-09-19T18:58:45.682Z,20.70
2018-09-19T19:01:13.745Z,29.37
2018-09-19T19:03:41.904Z,30.73
2018-09-19T19:06:09.974Z,37.67
2018-09-19T19:08:38.063Z,44.20
2018-09-19T19:11:06.197Z,42.60
2018-09-19T19:13:34.312Z,39.03
2018-09-19T19:16:02.442Z,51.73
2018-09-19T19:18:30.519Z,53.00
2018-09-19T19:20:58.575Z,48.50
2018-09-19T19:23:26.697Z,45.73
2018-09-19T19:25:54.774Z,54.40
2018-09-19T19:28:23.556Z,66.27
2018-09-19T19:30:51.815Z,57.13
2018-09-19T19:33:26.625Z,62.13
2018-09-19T19:35:54.706Z,63.13
2018-09-19T19:38:23.029Z,68.80
2018-09-19T19:40:51.133Z,64.63
2018-09-19T19:43:19.214Z,65.47
2018-09-19T19:45:47.289Z,60.43
2018-09-19T19:48:15.433Z,65.80
2018-09-19T19:50:43.597Z,77.53
2018-09-19T19:53:11.740Z,66.40
2018-09-19T19:55:39.847Z,78.27
2018-09-19T19:58:08.112Z,71.60
2018-09-19T20:00:36.166Z,73.47
2018-09-19T20:03:04.265Z,69.40
2018-09-19T20:05:32.371Z,61.57
2018-09-19T20:08:00.483Z,87.07
2018-09-19T20:10:28.562Z,79.70
2018-09-19T20:12:56.678Z,75.90
2018-09-19T20:15:24.784Z,67.17
2018-09-19T20:17:52.870Z,69.23
2018-09-19T20:20:21.017Z,85.70
2018-09-19T20:22:49.182Z,77.47
2018-09-19T20:25:17.271Z,77.27
2018-09-19T20:27:45.495Z,79.83
2018-09-19T20:30:13.582Z,73.63
2018-09-19T20:32:41.646Z,84.23
2018-09-19T20:35:09.730Z,74.47
2018-09-19T20:37:37.825Z,74.87
2018-09-19T20:40:06.171Z,73.23
2018-09-19T20:42:34.218Z,74.43
2018-09-19T20:45:02.328Z,59.10
2018-09-19T20:47:30.403Z,70.97
2018-09-19T20:49:58.469Z,53.03
2018-09-19T20:52:26.569Z,59.23
2018-09-19T20:54:54.834Z,56.87
2018-09-19T20:57:23.067Z,60.40
2018-09-19T20:59:51.205Z,70.40
2018-09-19T21:02:19.242Z,60.73
2018-09-19T21:04:47.335Z,67.50
2018-09-19T21:07:15.482Z,54.90
2018-09-19T21:09:44.546Z,53.20
2018-09-19T21:12:12.661Z,53.00
2018-09-19T21:14:40.732Z,49.30
2018-09-19T21:17:09.074Z,53.23
2018-09-19T21:19:37.141Z,48.07
2018-09-19T21:22:05.307Z,72.50
2018-09-19T21:24:33.291Z,53.13
2018-09-19T21:27:01.358Z,63.10
2018-09-19T21:29:29.477Z,44.30
2018-09-19T21:31:57.546Z,51.73
2018-09-19T21:34:25.678Z,70.93
2018-09-19T21:36:53.854Z,56.40
2018-09-19T21:39:22.161Z,45.03
2018-09-19T21:41:50.882Z,49.80
2018-09-19T21:44:19.072Z,41.23
2018-09-19T21:46:47.156Z,47.03
2018-09-19T21:49:15.342Z,38.63
2018-09-19T21:51:43.398Z,43.20
2018-09-19T21:54:11.494Z,41.43
2018-09-19T21:56:39.607Z,46.83
2018-09-19T21:59:07.749Z,51.13
2018-09-19T22:01:41.501Z,42.33
2018-09-19T22:04:10.689Z,45.33
2018-09-19T22:06:39.278Z,44.90
2018-09-19T22:09:09.545Z,36.83
2018-09-19T22:11:37.997Z,44.60
2018-09-19T22:14:06.357Z,45.00
2018-09-19T22:16:34.432Z,40.90
2018-09-19T22:19:02.570Z,40.37
2018-09-19T22:21:30.621Z,48.10
2018-09-19T22:23:58.694Z,40.83
2018-09-19T22:26:26.864Z,44.23
2018-09-19T22:28:54.981Z,39.83
2018-09-19T22:31:23.073Z,37.43
2018-09-19T22:33:51.835Z,35.60
2018-09-19T22:36:19.913Z,32.00
2018-09-19T22:38:48.021Z,37.87
2018-09-19T22:41:16.090Z,28.37
2018-09-19T22:43:44.165Z,30.10
2018-09-19T22:46:12.237Z,45.83
2018-09-19T22:48:40.324Z,31.50
2018-09-19T22:51:08.391Z,34.70
2018-09-19T22:53:36.635Z,40.27
2018-09-19T22:56:04.753Z,36.13
2018-09-19T22:58:32.879Z,29.30
2018-09-19T23:01:01.368Z,37.73
2018-09-19T23:03:29.577Z,42.93
2018-09-19T23:05:57.750Z,32.87
2018-09-19T23:08:25.966Z,39.30
2018-09-19T23:10:54.158Z,35.67
2018-09-19T23:13:22.432Z,32.07
2018-09-19T23:15:50.527Z,31.60
2018-09-19T23:18:18.922Z,38.10
2018-09-19T23:20:47.068Z,36.43
2018-09-19T23:23:15.686Z,47.27
2018-09-19T23:25:44.992Z,26.23
2018-09-19T23:28:14.160Z,35.73
2018-09-19T23:30:42.430Z,25.97
2018-09-19T23:33:10.498Z,35.73
2018-09-19T23:35:38.562Z,44.90
2018-09-19T23:38:06.625Z,28.73
2018-09-19T23:40:35.298Z,29.00
2018-09-19T23:43:03.502Z,31.93
2018-09-19T23:45:31.566Z,32.27
2018-09-19T23:47:59.624Z,36.30
2018-09-19T23:50:27.674Z,33.43
2018-09-19T23:52:55.765Z,28.13
2018-09-19T23:55:23.805Z,42.73
2018-09-19T23:57:51.899Z,29.67
